アムステルダム/スキポール の空港の天気 - METARとTAF

スキポール空港(アムステルダム) ( EHAM / AMS ) - オランダ アムステルダム
飛行場実況気象(Metar)
観測時間05/28 11:55 CEST (05/28 09:55 UTC)
風向・風速北西 7m/s
視程10km以上
天気現象
少しの雲 雲底高度 820m
全天の4割程度の雲 雲底高度 1250m
気温15℃
湿度59%
気圧1022hPa
METAREHAM 280955Z 32014KT 290V350 9999 FEW027 SCT041 15/07 Q1022 NOSIG
過去の天気等 Google飛行場航空写真 Wunderground天気予報

過去48時間のMETAR

飛行場予報(TAF)
発表時間: 5/28 06:33 CEST (5/28 04:33 UTC)
予報対象時間: 28日8時 CEST ~ 29日14時 CEST
風向・風速北西 7m/s
視程10km以上
全天の4割程度の雲 雲底高度 760m
28日10時 CEST ~ 28日13時 CEST に徐々に
風向・風速北北西 8m/s 瞬間風速 13m/s
28日20時 CEST ~ 28日23時 CEST に徐々に
風向・風速北北西 5m/s
29日2時 CEST ~ 29日11時 CEST に 確率 40% で一時的に
視程7000m
天気現象弱いしゅう雨
少しの塔状積雲 雲底高度 610m
全天の8割程度の雲 雲底高度 760m
TAF EHAM 280433Z 2806/2912 32014KT 9999 SCT025
BECMG 2808/2811 33016G26KT
BECMG 2818/2821 33010KT
PROB40 TEMPO 2900/2909 7000 -SHRA FEW020TCU BKN025